Brilliance Of The Seas — C6SJ5 — position and weather

sailwx.info

Track history (hours):
 
Tides and Currents Weather Stations Pressure Air Temp Water Temp Dewpoint Dewpoint Depression Visibility Wind Speed Wind Dir Waves Ship Positions

Brilliance Of The Seas

Operator: Royal Caribbean Cruises Ltd

Last reported at 2015-Sep-01 17:16 UTC. Time now 2015-Sep-02 04:26 UTC.
Position N 57°51' E 010°32'.

Type: Ship. MMSI: 311361000.

Date/timePositionNaut miles runAvg speedWind from/ knotsBaromVisibWave heightAir tempDewpointWater temp
2015-Sep-01 17:16N 57°51' E 010°32'913.3
2015-Sep-01 16:33N 57°45' E 010°47'10 1.1
2015-Sep-01 07:33N 57°39' E 011°03'1918.9
2015-Sep-01 06:33N 57°26' E 011°27'2319.2
2015-Sep-01 05:20N 57°04' E 011°42'1519.0
2015-Sep-01 04:33N 56°50' E 011°52'13716.9
2015-Aug-31 20:27N 54°36' E 011°02'1719.1
2015-Aug-31 19:33N 54°32' E 011°30'1919.2
2015-Aug-31 18:33N 54°26' E 012°02'1717.0
2015-Aug-31 17:33N 54°39' E 012°23'6019.7
2015-Aug-31 14:30N 55°02' E 013°59'1920.0
2015-Aug-31 13:33N 55°16' E 014°21'2020.1
2015-Aug-31 12:33N 55°30' E 014°45'11419.0
2015-Aug-31 06:32N 56°45' E 017°21'2020.3
2015-Aug-31 05:33N 57°05' E 017°31'2020.1
2015-Aug-31 04:33N 57°24' E 017°38'2020.3
2015-Aug-31 03:33N 57°44' E 017°48'97 8.1
2015-Aug-30 15:29N 59°20' E 018°13'4 3.7
2015-Aug-30 14:32N 59°19' E 018°06'0 0.0
2015-Aug-30 13:32N 59°19' E 018°06'0 0.0
2015-Aug-30 12:29N 59°19' E 018°06'0 0.0
2015-Aug-30 11:32N 59°19' E 018°06'0 0.0
2015-Aug-30 10:32N 59°19' E 018°06'0 0.0
2015-Aug-30 09:32N 59°19' E 018°06'0 0.0
2015-Aug-30 08:32N 59°19' E 018°06'0 0.0
2015-Aug-30 07:32N 59°19' E 018°06'0 0.0
2015-Aug-30 06:29N 59°19' E 018°06'7 7.3
2015-Aug-30 05:33N 59°23' E 018°17'10812.0
2015-Aug-29 20:32N 59°26' E 021°49'5317.8
2015-Aug-29 17:33N 59°37' E 023°32'99 5.5
2015-Aug-28 23:33N 60°01' E 026°43'9813.6
2015-Aug-28 16:21N 59°56' E 029°58'7 8.8
2015-Aug-28 15:33N 59°57' E 030°11'0 0.1
2015-Aug-28 14:31N 59°57' E 030°12'0 0.0
2015-Aug-28 13:28N 59°57' E 030°12'0 0.0
2015-Aug-28 12:31N 59°57' E 030°12'0 0.0
2015-Aug-28 11:31N 59°57' E 030°12'0 0.0
2015-Aug-28 10:31N 59°57' E 030°12'0 0.0
2015-Aug-28 09:31N 59°57' E 030°12'0 0.0
2015-Aug-28 08:31N 59°57' E 030°12'0 0.0
2015-Aug-28 07:31N 59°57' E 030°12'0 0.0
2015-Aug-28 06:33N 59°57' E 030°12'0 0.0
2015-Aug-28 05:33N 59°57' E 030°12'0 0.0
2015-Aug-28 04:33N 59°57' E 030°12'0 0.0
2015-Aug-28 03:33N 59°57' E 030°12'0 0.0
2015-Aug-28 02:33N 59°57' E 030°12'0 0.0
2015-Aug-28 01:33N 59°57' E 030°12'0 0.0
2015-Aug-28 00:33N 59°57' E 030°12'0 0.0
2015-Aug-27 23:33N 59°57' E 030°12'0 0.0
2015-Aug-27 22:32N 59°57' E 030°12'0 0.0
2015-Aug-27 21:33N 59°57' E 030°12'0 0.0
2015-Aug-27 20:33N 59°57' E 030°12'0 0.0
2015-Aug-27 19:33N 59°57' E 030°12'0 0.0
2015-Aug-27 18:33N 59°57' E 030°12'0 0.0
2015-Aug-27 17:33N 59°57' E 030°12'0 0.0
2015-Aug-27 16:33N 59°57' E 030°12'0 0.0
2015-Aug-27 15:33N 59°57' E 030°12'0 0.0
2015-Aug-27 14:33N 59°57' E 030°12'0 0.0
2015-Aug-27 13:33N 59°57' E 030°12'0 0.0
2015-Aug-27 12:33N 59°57' E 030°12'0 0.0
2015-Aug-27 11:33N 59°57' E 030°12'0 0.0
2015-Aug-27 10:33N 59°57' E 030°12'0 0.0
2015-Aug-27 09:33N 59°57' E 030°12'0 0.0
2015-Aug-27 08:33N 59°57' E 030°12'0 0.0
2015-Aug-27 07:33N 59°57' E 030°12'0 0.0
2015-Aug-27 06:33N 59°57' E 030°12'0 0.0
2015-Aug-27 05:33N 59°57' E 030°12'0 0.0
2015-Aug-27 04:33N 59°57' E 030°12'0 0.0
2015-Aug-27 03:33N 59°57' E 030°11'6 6.3
2015-Aug-27 02:33N 59°56' E 029°59'1010.2
2015-Aug-27 01:32N 59°60' E 029°40'8313.5
2015-Aug-26 19:24N 59°59' E 026°54'1314.8
2015-Aug-26 18:32N 59°58' E 026°29'45413.4
2015-Aug-25 08:33N 55°30' E 015°01'2020.1
2015-Aug-25 07:33N 55°19' E 014°32'2020.2
2015-Aug-25 06:34N 55°02' E 014°13'2020.4
2015-Aug-25 05:33N 54°55' E 013°40'2120.5
2015-Aug-25 04:31N 54°48' E 013°05'3718.7
2015-Aug-25 02:33N 54°27' E 012°14'1817.8
2015-Aug-25 01:33N 54°25' E 011°43'1919.2
2015-Aug-25 00:33N 54°33' E 011°13'1818.0
2015-Aug-24 23:33N 54°42' E 010°46'3617.4
2015-Aug-24 21:29N 55°16' E 011°04'5914.1
2015-Aug-24 17:16N 56°10' E 011°50'1419.6
2015-Aug-24 16:34N 56°13' E 012°15'1918.6
2015-Aug-24 15:34N 56°01' E 012°41'1616.4
2015-Aug-24 14:33N 55°45' E 012°40'3 3.5
2015-Aug-24 13:33N 55°42' E 012°36'0 0.0
2015-Aug-24 12:33N 55°42' E 012°36'0 0.0
2015-Aug-24 11:33N 55°42' E 012°36'0 0.0
2015-Aug-24 10:33N 55°42' E 012°36'0 0.0
2015-Aug-24 09:31N 55°42' E 012°36'0 0.0
2015-Aug-24 08:30N 55°42' E 012°36'0 0.0
2015-Aug-24 07:33N 55°42' E 012°36'0 0.0
2015-Aug-24 06:33N 55°42' E 012°36'0 0.0
2015-Aug-24 05:33N 55°42' E 012°36'0 0.3
2015-Aug-24 04:33N 55°42' E 012°36'10 9.9
2015-Aug-24 03:33N 55°52' E 012°40'1615.9
2015-Aug-24 02:33N 56°07' E 012°31'1818.2
2015-Aug-24 01:33N 56°18' E 012°04'1818.3
2015-Aug-24 00:33N 56°35' E 011°53'1918.6
2015-Aug-23 23:33N 56°53' E 011°47'1918.5
2015-Aug-23 22:31N 57°11' E 011°35'1818.6
2015-Aug-23 21:34N 57°28' E 011°23'1818.2
2015-Aug-23 20:33N 57°41' E 010°58'1817.6
2015-Aug-23 19:33N 57°49' E 010°29'2518.7
2015-Aug-23 18:14N 57°50' E 009°43'1619.0
2015-Aug-23 17:25N 57°43' E 009°17'16818.2
2015-Aug-23 08:09N 55°36' E 005°56'1919.0
2015-Aug-23 07:11N 55°19' E 005°42'1419.6
2015-Aug-23 06:29N 55°07' E 005°31'2219.3
2015-Aug-23 05:19N 54°46' E 005°17'1419.0
2015-Aug-23 04:33N 54°34' E 005°03'2019.4
2015-Aug-23 03:31N 54°16' E 004°48'2119.7
2015-Aug-23 02:28N 53°56' E 004°36'3819.3
2015-Aug-23 00:31N 53°31' E 003°49'1919.4
2015-Aug-22 23:33N 53°14' E 003°34'7418.4
2015-Aug-22 19:30N 52°13' E 002°25'1818.9
2015-Aug-22 18:33N 52°06' E 001°58'1918.9
2015-Aug-22 17:33N 51°49' E 001°45'  
Track history (hours):
 
Tides and Currents Weather Stations Pressure Air Temp Water Temp Dewpoint Dewpoint Depression Visibility Wind Speed Wind Dir Waves Ship Positions

Brilliance Of The Seas

Operator: Royal Caribbean Cruises Ltd

Last reported at 2015-Sep-01 17:16 UTC. Time now 2015-Sep-02 04:26 UTC.
Position N 57°51' E 010°32'.

Type: Ship. MMSI: 311361000.

Date/timePositionNaut miles runAvg speedWind from/ knotsBaromVisibWave heightAir tempDewpointWater temp
2015-Sep-01 17:16N 57°51' E 010°32'913.3
2015-Sep-01 16:33N 57°45' E 010°47'10 1.1
2015-Sep-01 07:33N 57°39' E 011°03'1918.9
2015-Sep-01 06:33N 57°26' E 011°27'2319.2
2015-Sep-01 05:20N 57°04' E 011°42'1519.0
2015-Sep-01 04:33N 56°50' E 011°52'13716.9
2015-Aug-31 20:27N 54°36' E 011°02'1719.1
2015-Aug-31 19:33N 54°32' E 011°30'1919.2
2015-Aug-31 18:33N 54°26' E 012°02'1717.0
2015-Aug-31 17:33N 54°39' E 012°23'6019.7
2015-Aug-31 14:30N 55°02' E 013°59'1920.0
2015-Aug-31 13:33N 55°16' E 014°21'2020.1
2015-Aug-31 12:33N 55°30' E 014°45'11419.0
2015-Aug-31 06:32N 56°45' E 017°21'2020.3
2015-Aug-31 05:33N 57°05' E 017°31'2020.1
2015-Aug-31 04:33N 57°24' E 017°38'2020.3
2015-Aug-31 03:33N 57°44' E 017°48'97 8.1
2015-Aug-30 15:29N 59°20' E 018°13'4 3.7
2015-Aug-30 14:32N 59°19' E 018°06'0 0.0
2015-Aug-30 13:32N 59°19' E 018°06'0 0.0
2015-Aug-30 12:29N 59°19' E 018°06'0 0.0
2015-Aug-30 11:32N 59°19' E 018°06'0 0.0
2015-Aug-30 10:32N 59°19' E 018°06'0 0.0
2015-Aug-30 09:32N 59°19' E 018°06'0 0.0
2015-Aug-30 08:32N 59°19' E 018°06'0 0.0
2015-Aug-30 07:32N 59°19' E 018°06'0 0.0
2015-Aug-30 06:29N 59°19' E 018°06'7 7.3
2015-Aug-30 05:33N 59°23' E 018°17'10812.0
2015-Aug-29 20:32N 59°26' E 021°49'5317.8
2015-Aug-29 17:33N 59°37' E 023°32'99 5.5
2015-Aug-28 23:33N 60°01' E 026°43'9813.6
2015-Aug-28 16:21N 59°56' E 029°58'7 8.8
2015-Aug-28 15:33N 59°57' E 030°11'0 0.1
2015-Aug-28 14:31N 59°57' E 030°12'0 0.0
2015-Aug-28 13:28N 59°57' E 030°12'0 0.0
2015-Aug-28 12:31N 59°57' E 030°12'0 0.0
2015-Aug-28 11:31N 59°57' E 030°12'0 0.0
2015-Aug-28 10:31N 59°57' E 030°12'0 0.0
2015-Aug-28 09:31N 59°57' E 030°12'0 0.0
2015-Aug-28 08:31N 59°57' E 030°12'0 0.0
2015-Aug-28 07:31N 59°57' E 030°12'0 0.0
2015-Aug-28 06:33N 59°57' E 030°12'0 0.0
2015-Aug-28 05:33N 59°57' E 030°12'0 0.0
2015-Aug-28 04:33N 59°57' E 030°12'0 0.0
2015-Aug-28 03:33N 59°57' E 030°12'0 0.0
2015-Aug-28 02:33N 59°57' E 030°12'0 0.0
2015-Aug-28 01:33N 59°57' E 030°12'0 0.0
2015-Aug-28 00:33N 59°57' E 030°12'0 0.0
2015-Aug-27 23:33N 59°57' E 030°12'0 0.0
2015-Aug-27 22:32N 59°57' E 030°12'0 0.0
2015-Aug-27 21:33N 59°57' E 030°12'0 0.0
2015-Aug-27 20:33N 59°57' E 030°12'0 0.0
2015-Aug-27 19:33N 59°57' E 030°12'0 0.0
2015-Aug-27 18:33N 59°57' E 030°12'0 0.0
2015-Aug-27 17:33N 59°57' E 030°12'0 0.0
2015-Aug-27 16:33N 59°57' E 030°12'0 0.0
2015-Aug-27 15:33N 59°57' E 030°12'0 0.0
2015-Aug-27 14:33N 59°57' E 030°12'0 0.0
2015-Aug-27 13:33N 59°57' E 030°12'0 0.0
2015-Aug-27 12:33N 59°57' E 030°12'0 0.0
2015-Aug-27 11:33N 59°57' E 030°12'0 0.0
2015-Aug-27 10:33N 59°57' E 030°12'0 0.0
2015-Aug-27 09:33N 59°57' E 030°12'0 0.0
2015-Aug-27 08:33N 59°57' E 030°12'0 0.0
2015-Aug-27 07:33N 59°57' E 030°12'0 0.0
2015-Aug-27 06:33N 59°57' E 030°12'0 0.0
2015-Aug-27 05:33N 59°57' E 030°12'0 0.0
2015-Aug-27 04:33N 59°57' E 030°12'0 0.0
2015-Aug-27 03:33N 59°57' E 030°11'6 6.3
2015-Aug-27 02:33N 59°56' E 029°59'1010.2
2015-Aug-27 01:32N 59°60' E 029°40'8313.5
2015-Aug-26 19:24N 59°59' E 026°54'1314.8
2015-Aug-26 18:32N 59°58' E 026°29'45413.4
2015-Aug-25 08:33N 55°30' E 015°01'2020.1
2015-Aug-25 07:33N 55°19' E 014°32'2020.2
2015-Aug-25 06:34N 55°02' E 014°13'2020.4
2015-Aug-25 05:33N 54°55' E 013°40'2120.5
2015-Aug-25 04:31N 54°48' E 013°05'3718.7
2015-Aug-25 02:33N 54°27' E 012°14'1817.8
2015-Aug-25 01:33N 54°25' E 011°43'1919.2
2015-Aug-25 00:33N 54°33' E 011°13'1818.0
2015-Aug-24 23:33N 54°42' E 010°46'3617.4
2015-Aug-24 21:29N 55°16' E 011°04'5914.1
2015-Aug-24 17:16N 56°10' E 011°50'1419.6
2015-Aug-24 16:34N 56°13' E 012°15'1918.6
2015-Aug-24 15:34N 56°01' E 012°41'1616.4
2015-Aug-24 14:33N 55°45' E 012°40'3 3.5
2015-Aug-24 13:33N 55°42' E 012°36'0 0.0
2015-Aug-24 12:33N 55°42' E 012°36'0 0.0
2015-Aug-24 11:33N 55°42' E 012°36'0 0.0
2015-Aug-24 10:33N 55°42' E 012°36'0 0.0
2015-Aug-24 09:31N 55°42' E 012°36'0 0.0
2015-Aug-24 08:30N 55°42' E 012°36'0 0.0
2015-Aug-24 07:33N 55°42' E 012°36'0 0.0
2015-Aug-24 06:33N 55°42' E 012°36'0 0.0
2015-Aug-24 05:33N 55°42' E 012°36'0 0.3
2015-Aug-24 04:33N 55°42' E 012°36'10 9.9
2015-Aug-24 03:33N 55°52' E 012°40'1615.9
2015-Aug-24 02:33N 56°07' E 012°31'1818.2
2015-Aug-24 01:33N 56°18' E 012°04'1818.3
2015-Aug-24 00:33N 56°35' E 011°53'1918.6
2015-Aug-23 23:33N 56°53' E 011°47'1918.5
2015-Aug-23 22:31N 57°11' E 011°35'1818.6
2015-Aug-23 21:34N 57°28' E 011°23'1818.2
2015-Aug-23 20:33N 57°41' E 010°58'1817.6
2015-Aug-23 19:33N 57°49' E 010°29'2518.7
2015-Aug-23 18:14N 57°50' E 009°43'1619.0
2015-Aug-23 17:25N 57°43' E 009°17'16818.2
2015-Aug-23 08:09N 55°36' E 005°56'1919.0
2015-Aug-23 07:11N 55°19' E 005°42'1419.6
2015-Aug-23 06:29N 55°07' E 005°31'2219.3
2015-Aug-23 05:19N 54°46' E 005°17'1419.0
2015-Aug-23 04:33N 54°34' E 005°03'2019.4
2015-Aug-23 03:31N 54°16' E 004°48'2119.7
2015-Aug-23 02:28N 53°56' E 004°36'3819.3
2015-Aug-23 00:31N 53°31' E 003°49'1919.4
2015-Aug-22 23:33N 53°14' E 003°34'7418.4
2015-Aug-22 19:30N 52°13' E 002°25'1818.9
2015-Aug-22 18:33N 52°06' E 001°58'1918.9
2015-Aug-22 17:33N 51°49' E 001°45'  

Dump ship's entire track history